Terminal Aerodrome Forecast
Issued by NWS Cleveland, OH

Home | Current Version | Previous Version | Graphics & Text | Print | Product List | Glossary On
Versions: 1 2 3 4 5 6 7 8 9 10 11 12 13
000
FTUS41 KCLE 220500
TAFMFD
TAF
KMFD 220537Z 2206/2306 24007KT P6SM SCT090
     FM220900 25008KT P6SM SCT050 OVC080
     FM221400 31010KT P6SM SCT090
     FM221800 32010G18KT P6SM FEW040
     FM222300 VRB05KT P6SM SKC=

USA.gov is the U.S. government's official web portal to all federal, state and local government web resources and services.